Time;durP1;ratioP1;P1;durP2;ratioP2;P2;SDS_P1;SDS_P2;PMS_P1;PMS_P2;Temp;Humidity;BMP_temperature;BMP_pressure;BME280_temperature;BME280_humidity;BME280_pressure;Samples;Min_cycle;Max_cycle;Signal;HPM_P1;HPM_P2
2023/05/05 00:01:35;;;;;;;4.13;3.72;;;;;;;16.21;74.13;101474.69;5021612;28;20041;-72
2023/05/05 00:04:00;;;;;;;4.63;3.63;;;;;;;16.18;74.03;101480.16;5021616;28;20037;-72
2023/05/05 00:06:27;;;;;;;4.10;3.60;;;;;;;16.12;74.79;101473.41;5021599;28;20240;-72
2023/05/05 00:08:53;;;;;;;4.18;3.85;;;;;;;16.06;75.14;101459.66;5022045;28;20041;-72
2023/05/05 00:11:18;;;;;;;3.22;2.92;;;;;;;16.00;75.52;101460.00;5021560;28;20280;-72
2023/05/05 00:13:44;;;;;;;4.00;3.22;;;;;;;15.95;75.63;101449.66;5021302;28;20128;-72
2023/05/05 00:16:09;;;;;;;4.70;3.17;;;;;;;15.93;75.49;101448.91;5019460;28;20061;-72
2023/05/05 00:18:34;;;;;;;3.33;2.63;;;;;;;15.92;75.53;101449.84;5019799;28;20088;-72
2023/05/05 00:21:00;;;;;;;2.95;2.65;;;;;;;15.90;75.43;101442.00;5020025;28;20396;-72
2023/05/05 00:23:25;;;;;;;3.00;2.72;;;;;;;15.90;75.21;101449.09;5020071;28;20029;-72
2023/05/05 00:25:51;;;;;;;3.75;2.45;;;;;;;15.88;74.87;101441.25;5019881;28;20321;-72
2023/05/05 00:28:16;;;;;;;2.40;2.22;;;;;;;15.88;74.61;101438.59;5020159;28;20140;-72
2023/05/05 00:30:42;;;;;;;2.90;2.45;;;;;;;15.90;74.47;101427.97;5019645;28;20045;-72
2023/05/05 00:33:07;;;;;;;2.75;2.55;;;;;;;15.90;74.44;101422.69;5020136;28;20118;-73
2023/05/05 00:35:33;;;;;;;4.00;2.60;;;;;;;15.89;74.39;101418.31;5019480;28;20052;-73
2023/05/05 00:37:58;;;;;;;2.95;2.17;;;;;;;15.88;74.09;101424.50;5020474;28;20113;-72
2023/05/05 00:40:24;;;;;;;2.33;2.13;;;;;;;15.88;73.90;101429.78;5019686;28;20382;-73
2023/05/05 00:42:50;;;;;;;1.98;1.88;;;;;;;15.86;73.65;101437.84;5019810;28;20105;-73
2023/05/05 00:45:17;;;;;;;2.13;1.70;;;;;;;15.87;73.73;101438.69;5019743;28;20037;-73
2023/05/05 00:47:45;;;;;;;2.28;2.08;;;;;;;15.86;74.04;101444.88;5019741;28;20112;-73
2023/05/05 00:50:20;;;;;;;2.90;1.80;;;;;;;15.84;74.30;101441.47;5020415;28;20217;-73
2023/05/05 00:52:45;;;;;;;2.45;2.25;;;;;;;15.82;75.38;101446.81;5019759;28;20101;-73
2023/05/05 00:55:11;;;;;;;1.90;1.80;;;;;;;15.80;75.13;101451.34;5018619;28;20307;-73
2023/05/05 00:57:36;;;;;;;2.35;2.10;;;;;;;15.79;76.09;101454.06;5019531;28;20107;-72
2023/05/05 01:00:03;;;;;;;3.58;1.80;;;;;;;15.76;76.42;101462.16;5020181;28;20228;-72
2023/05/05 01:02:29;;;;;;;2.30;2.10;;;;;;;15.73;76.79;101465.78;5019757;28;20042;-72
2023/05/05 01:04:55;;;;;;;2.35;2.00;;;;;;;15.70;76.72;101460.66;5019167;28;20042;-72
2023/05/05 01:07:26;;;;;;;2.40;2.20;;;;;;;15.68;76.55;101463.38;5019257;28;20280;-72
2023/05/05 01:10:00;;;;;;;1.58;1.48;;;;;;;15.66;76.59;101456.47;5018973;28;20249;-72
2023/05/05 01:12:45;;;;;;;1.67;1.58;;;;;;;15.64;76.71;101461.81;5019439;28;20392;-72
2023/05/05 01:15:17;;;;;;;2.50;1.80;;;;;;;15.63;76.37;101465.41;4966662;28;1735155;-72
2023/05/05 01:18:08;;;;;;;1.92;1.83;;;;;;;15.62;76.44;101452.28;5020291;28;20383;-72
2023/05/05 01:21:00;;;;;;;1.77;1.58;;;;;;;15.59;76.28;101452.44;5020050;28;20057;-72
2023/05/05 01:23:55;;;;;;;1.50;1.40;;;;;;;15.57;75.75;101459.59;5020648;28;20037;-72
2023/05/05 01:26:46;;;;;;;1.55;1.45;;;;;;;15.53;75.77;101467.69;5010282;28;20256;-72
2023/05/05 01:29:37;;;;;;;1.88;1.77;;;;;;;15.52;75.53;101479.16;5020133;28;20100;-72
2023/05/05 01:32:11;;;;;;;1.83;1.70;;;;;;;15.50;76.07;101480.19;5020121;28;20041;-72
2023/05/05 01:35:14;;;;;;;1.55;1.45;;;;;;;15.46;75.96;101479.47;5018383;28;20245;-72
2023/05/05 01:37:45;;;;;;;2.88;1.70;;;;;;;15.43;76.19;101478.78;5017839;28;20107;-72
2023/05/05 01:40:12;;;;;;;1.70;1.60;;;;;;;15.38;76.45;101476.38;5019404;28;20333;-72
2023/05/05 01:42:42;;;;;;;3.10;1.77;;;;;;;15.37;76.20;101469.38;5020022;28;20371;-73
2023/05/05 01:45:10;;;;;;;2.95;1.80;;;;;;;15.33;76.42;101478.38;5019890;28;20033;-72
2023/05/05 01:47:38;;;;;;;1.80;1.70;;;;;;;15.31;76.62;101482.88;5019577;28;20260;-72
2023/05/05 01:50:06;;;;;;;2.87;1.70;;;;;;;15.30;76.79;101481.19;5020392;28;20101;-72
2023/05/05 01:52:34;;;;;;;5.93;1.90;;;;;;;15.27;76.90;101484.81;5019667;28;20308;-72
2023/05/05 01:55:02;;;;;;;1.77;1.60;;;;;;;15.24;76.85;101482.31;5019726;28;20046;-72
2023/05/05 01:57:30;;;;;;;1.55;1.40;;;;;;;15.23;76.95;101482.44;5019948;28;20064;-72
2023/05/05 01:59:57;;;;;;;2.88;1.77;;;;;;;15.21;76.73;101486.91;5019502;28;20329;-72
2023/05/05 02:02:26;;;;;;;2.90;1.90;;;;;;;15.18;76.91;101482.66;5019601;28;20084;-72
2023/05/05 02:04:52;;;;;;;3.03;1.65;;;;;;;15.16;76.66;101488.00;5019311;28;20045;-72
2023/05/05 02:07:19;;;;;;;1.60;1.50;;;;;;;15.13;76.83;101487.28;5019868;28;20041;-72
2023/05/05 02:09:46;;;;;;;2.05;1.65;;;;;;;15.12;76.68;101481.16;5019584;28;20045;-72
2023/05/05 02:12:12;;;;;;;2.55;1.73;;;;;;;15.10;76.87;101483.03;5019543;28;20111;-72
2023/05/05 02:14:39;;;;;;;3.17;1.95;;;;;;;15.09;76.72;101485.75;5019195;28;20057;-73
2023/05/05 02:17:04;;;;;;;2.17;1.58;;;;;;;15.06;77.20;101492.03;5018310;28;20045;-73
2023/05/05 02:19:38;;;;;;;1.48;1.38;;;;;;;15.04;76.69;101491.22;5019750;28;20100;-73
2023/05/05 02:22:03;;;;;;;2.53;1.90;;;;;;;15.02;76.86;101490.44;5017857;28;20248;-73
2023/05/05 02:24:29;;;;;;;1.90;1.80;;;;;;;15.00;76.74;101494.09;5018950;28;20050;-73
2023/05/05 02:26:56;;;;;;;1.70;1.55;;;;;;;14.98;76.97;101502.94;5018502;28;20045;-73
2023/05/05 02:29:29;;;;;;;2.15;1.50;;;;;;;14.97;76.50;101505.63;5018691;28;20308;-73
2023/05/05 02:32:01;;;;;;;1.70;1.60;;;;;;;14.95;76.83;101502.22;5016704;28;20049;-73
2023/05/05 02:34:28;;;;;;;1.88;1.67;;;;;;;14.92;76.84;101499.75;5018626;28;20333;-73
2023/05/05 02:36:57;;;;;;;2.85;1.48;;;;;;;14.89;77.50;101484.06;5016783;28;20076;-73
2023/05/05 02:39:50;;;;;;;;;;;;;;;14.86;78.02;101489.50;5019049;28;20329;-73
2023/05/05 02:42:20;;;;;;;3.75;1.70;;;;;;;14.83;78.05;101501.06;5015435;28;20164;-73
2023/05/05 02:44:46;;;;;;;2.47;1.90;;;;;;;14.81;78.27;101504.69;5016618;28;20118;-73
2023/05/05 02:47:12;;;;;;;2.25;1.48;;;;;;;14.78;77.88;101500.41;5016576;28;20069;-73
2023/05/05 02:49:37;;;;;;;3.40;2.00;;;;;;;14.77;77.76;101506.59;5016244;28;20046;-73
2023/05/05 02:52:03;;;;;;;2.35;2.13;;;;;;;14.77;77.95;101506.59;5017179;28;20037;-73
2023/05/05 02:54:30;;;;;;;3.15;2.38;;;;;;;14.74;78.01;101510.25;5017256;28;20349;-73
2023/05/05 02:56:56;;;;;;;3.80;2.85;;;;;;;14.73;78.55;101515.59;5017817;28;20044;-73
2023/05/05 02:59:46;;;;;;;3.15;2.65;;;;;;;14.72;78.67;101519.19;5018106;28;20097;-73
2023/05/05 03:02:20;;;;;;;4.18;3.42;;;;;;;14.70;78.56;101508.69;5018036;28;20041;-73
2023/05/05 03:04:52;;;;;;;5.30;4.75;;;;;;;14.68;79.68;101515.81;5017970;28;20035;-73
2023/05/05 03:07:26;;;;;;;4.78;4.38;;;;;;;14.65;79.99;101510.69;5009558;28;20121;-73
2023/05/05 03:10:13;;;;;;;6.28;5.50;;;;;;;14.63;80.26;101507.28;5006677;28;20352;-73
2023/05/05 03:12:53;;;;;;;6.82;5.65;;;;;;;14.62;80.51;101496.78;5017821;28;20106;-73
2023/05/05 03:15:23;;;;;;;6.65;5.95;;;;;;;14.59;80.12;101482.84;5018169;28;20123;-73
2023/05/05 03:17:51;;;;;;;7.38;5.53;;;;;;;14.59;80.33;101487.25;5017402;28;20041;-73
2023/05/05 03:20:17;;;;;;;6.43;5.63;;;;;;;14.58;80.34;101485.53;5017649;28;20349;-73
2023/05/05 03:22:43;;;;;;;9.50;7.18;;;;;;;14.57;80.14;101492.59;5017622;28;20037;-73
2023/05/05 03:25:09;;;;;;;8.73;6.47;;;;;;;14.56;80.63;101492.63;5017652;28;20352;-73
2023/05/05 03:27:34;;;;;;;8.18;6.65;;;;;;;14.55;80.40;101499.69;5017421;28;20092;-73
2023/05/05 03:30:00;;;;;;;8.50;6.30;;;;;;;14.55;79.91;101504.09;5017560;28;20038;-73
2023/05/05 03:32:25;;;;;;;10.18;6.25;;;;;;;14.54;80.13;101503.25;5016217;28;20046;-73
2023/05/05 03:34:51;;;;;;;7.20;6.50;;;;;;;14.54;79.86;101505.03;5017248;28;20045;-73
2023/05/05 03:37:16;;;;;;;6.90;6.28;;;;;;;14.52;80.00;101499.00;5017544;28;20046;-73
2023/05/05 03:39:42;;;;;;;9.77;6.57;;;;;;;14.51;79.67;101494.63;5016032;28;20443;-73
2023/05/05 03:42:07;;;;;;;7.18;6.45;;;;;;;14.50;79.69;101491.16;5016854;28;20104;-73
2023/05/05 03:44:33;;;;;;;7.95;7.13;;;;;;;14.49;79.58;101499.13;5016075;28;20041;-73
2023/05/05 03:46:58;;;;;;;8.57;7.00;;;;;;;14.49;79.30;101504.41;5017828;28;20072;-73
2023/05/05 03:49:23;;;;;;;7.70;6.90;;;;;;;14.47;79.35;101508.88;5017679;28;20053;-73
2023/05/05 03:51:49;;;;;;;7.57;6.55;;;;;;;14.46;79.52;101515.94;5017310;28;20037;-73
2023/05/05 03:54:15;;;;;;;9.40;7.63;;;;;;;14.44;79.42;101516.91;5017461;28;20117;-73
2023/05/05 03:56:40;;;;;;;9.25;7.40;;;;;;;14.43;79.87;101523.13;5016883;28;20069;-73
2023/05/05 03:59:07;;;;;;;11.00;8.52;;;;;;;14.39;80.99;101518.00;5017462;28;20288;-73
2023/05/05 04:01:34;;;;;;;17.63;9.48;;;;;;;14.36;81.71;101525.19;5017119;28;20046;-73
2023/05/05 04:03:59;;;;;;;11.57;9.02;;;;;;;14.35;81.78;101523.47;5017354;28;20390;-73
2023/05/05 04:06:25;;;;;;;9.68;8.38;;;;;;;14.32;81.78;101526.25;5017210;28;20042;-73
2023/05/05 04:08:50;;;;;;;13.27;8.45;;;;;;;14.31;82.14;101532.44;5016390;28;20117;-73
2023/05/05 04:11:16;;;;;;;10.77;8.40;;;;;;;14.30;82.02;101538.66;5017121;28;20514;-73
2023/05/05 04:13:41;;;;;;;9.00;7.72;;;;;;;14.28;81.81;101535.19;5016588;28;20099;-73
2023/05/05 04:16:07;;;;;;;11.05;8.07;;;;;;;14.27;81.98;101538.78;5017141;28;20088;-73
2023/05/05 04:18:33;;;;;;;10.23;8.98;;;;;;;14.26;81.85;101537.94;5016688;28;20057;-73
2023/05/05 04:20:58;;;;;;;10.00;8.32;;;;;;;14.25;81.21;101544.13;5017391;28;20122;-73
2023/05/05 04:23:24;;;;;;;8.93;8.02;;;;;;;14.27;81.16;101544.06;5017519;28;20038;-73
2023/05/05 04:25:49;;;;;;;12.20;9.20;;;;;;;14.26;81.33;101537.94;5017290;28;20088;-73
2023/05/05 04:28:14;;;;;;;14.88;9.80;;;;;;;14.26;81.02;101542.31;5017062;28;20116;-73
2023/05/05 04:30:40;;;;;;;11.25;8.85;;;;;;;14.25;80.75;101557.28;5016718;28;20041;-73
2023/05/05 04:33:05;;;;;;;15.10;9.00;;;;;;;14.24;80.62;101550.28;5017447;28;20092;-73
2023/05/05 04:35:31;;;;;;;11.23;8.40;;;;;;;14.24;80.78;101546.81;5017013;28;20364;-73
2023/05/05 04:37:56;;;;;;;12.05;9.38;;;;;;;14.23;80.42;101548.59;5016810;28;20042;-73
2023/05/05 04:40:21;;;;;;;9.75;8.52;;;;;;;14.23;80.35;101553.03;5016144;28;20034;-73
2023/05/05 04:42:47;;;;;;;9.52;8.57;;;;;;;14.23;80.63;101547.75;5020254;28;20289;-73
2023/05/05 04:45:12;;;;;;;15.63;10.25;;;;;;;14.21;80.49;101550.44;5019052;28;20037;-73
2023/05/05 04:47:39;;;;;;;10.38;9.20;;;;;;;14.20;80.57;101546.09;5019450;28;20044;-73
2023/05/05 04:50:05;;;;;;;11.98;9.52;;;;;;;14.20;80.54;101543.47;5020301;28;20117;-73
2023/05/05 04:52:30;;;;;;;14.85;10.75;;;;;;;14.18;80.46;101540.03;5020110;28;20042;-73
2023/05/05 04:54:56;;;;;;;12.32;10.35;;;;;;;14.18;80.68;101537.41;5019938;28;20049;-73
2023/05/05 04:57:21;;;;;;;11.75;10.40;;;;;;;14.17;81.13;101544.47;5020664;28;20109;-73
2023/05/05 04:59:47;;;;;;;12.32;9.50;;;;;;;14.18;81.18;101556.69;5020097;28;20049;-73
2023/05/05 05:02:12;;;;;;;17.00;12.05;;;;;;;14.17;81.27;101559.38;5018937;28;20037;-73
2023/05/05 05:04:37;;;;;;;13.48;11.05;;;;;;;14.17;81.86;101559.38;5020070;28;20068;-73
2023/05/05 05:07:03;;;;;;;12.48;10.85;;;;;;;14.16;81.73;101558.53;5020754;28;20045;-73
2023/05/05 05:09:28;;;;;;;14.50;11.10;;;;;;;14.16;81.70;101561.19;5023454;28;20076;-73
2023/05/05 05:11:58;;;;;;;17.40;11.18;;;;;;;14.16;81.98;101565.59;5018477;28;20244;-73
2023/05/05 05:14:24;;;;;;;15.88;12.05;;;;;;;14.16;82.14;101568.22;5017029;28;20355;-73
2023/05/05 05:16:51;;;;;;;12.07;9.95;;;;;;;14.16;82.19;101565.59;5019547;28;20061;-73
2023/05/05 05:19:16;;;;;;;15.75;10.82;;;;;;;14.15;82.38;101571.78;5018660;28;20275;-73
2023/05/05 05:21:42;;;;;;;14.80;11.18;;;;;;;14.16;83.01;101573.50;5019827;28;20078;-73
2023/05/05 05:24:07;;;;;;;19.55;12.85;;;;;;;14.15;83.17;101577.91;5020295;28;20107;-73
2023/05/05 05:26:32;;;;;;;17.58;12.43;;;;;;;14.16;84.21;101579.63;5019401;28;20064;-73
2023/05/05 05:28:58;;;;;;;13.40;11.07;;;;;;;14.16;83.83;101578.78;5019880;28;20048;-73
2023/05/05 05:31:23;;;;;;;17.35;11.48;;;;;;;14.17;83.76;101575.19;5018523;28;20060;-73
2023/05/05 05:33:49;;;;;;;15.48;12.10;;;;;;;14.18;84.03;101566.38;5019599;28;20038;-73
2023/05/05 05:36:15;;;;;;;18.08;13.00;;;;;;;14.19;84.06;101565.47;5019776;28;20109;-73
2023/05/05 05:38:40;;;;;;;16.77;13.23;;;;;;;14.19;84.54;101570.75;5019492;28;20046;-73
2023/05/05 05:41:06;;;;;;;20.70;13.63;;;;;;;14.20;84.48;101560.09;5018327;28;20041;-73
2023/05/05 05:43:32;;;;;;;15.73;11.93;;;;;;;14.20;84.60;101565.38;5018841;28;20083;-73
2023/05/05 05:45:57;;;;;;;15.10;12.05;;;;;;;14.21;84.14;101577.63;5019521;28;20037;-73
2023/05/05 05:48:27;;;;;;;12.82;10.70;;;;;;;14.23;84.20;101593.38;5019321;28;20100;-73
2023/05/05 05:50:53;;;;;;;13.18;11.35;;;;;;;14.22;83.96;101594.28;5019836;28;20057;-73
2023/05/05 05:53:18;;;;;;;14.70;10.05;;;;;;;14.21;83.62;101590.81;5035524;28;20068;-73
2023/05/05 05:55:45;;;;;;;14.13;10.60;;;;;;;14.23;84.00;101590.75;5021595;28;20034;-73
2023/05/05 05:58:11;;;;;;;14.00;10.50;;;;;;;14.23;83.98;101590.75;5015295;28;20045;-73
2023/05/05 06:00:36;;;;;;;11.70;9.93;;;;;;;14.23;83.62;101598.66;5011576;28;20041;-73
2023/05/05 06:03:01;;;;;;;20.88;11.02;;;;;;;14.24;83.54;101602.13;5018600;28;20072;-73
2023/05/05 06:05:27;;;;;;;16.55;11.43;;;;;;;14.23;83.03;101608.34;5018682;28;20053;-73
2023/05/05 06:07:52;;;;;;;24.33;12.07;;;;;;;14.23;83.34;101611.81;5021817;28;20045;-73
2023/05/05 06:10:17;;;;;;;18.50;12.77;;;;;;;14.24;83.25;101616.16;5018133;28;20091;-73
2023/05/05 06:12:43;;;;;;;16.98;12.20;;;;;;;14.24;83.83;101615.31;5012325;28;20050;-73
2023/05/05 06:15:09;;;;;;;18.30;12.05;;;;;;;14.25;83.32;101619.66;5011664;28;20052;-73
2023/05/05 06:17:34;;;;;;;14.05;11.70;;;;;;;14.25;83.41;101615.25;5012441;28;20042;-73
2023/05/05 06:19:59;;;;;;;16.85;10.98;;;;;;;14.26;82.88;101622.25;5013445;28;20080;-73
2023/05/05 06:22:25;;;;;;;24.10;15.52;;;;;;;14.28;84.28;101619.50;5016431;28;20053;-73
2023/05/05 06:24:50;;;;;;;18.90;12.77;;;;;;;14.30;85.55;101620.31;5017829;28;20038;-73
2023/05/05 06:27:16;;;;;;;27.77;14.98;;;;;;;14.31;84.88;101625.50;5019257;28;20048;-73
2023/05/05 06:29:41;;;;;;;21.98;13.38;;;;;;;14.35;86.19;101627.09;5019476;28;20041;-73
2023/05/05 06:32:07;;;;;;;19.58;13.77;;;;;;;14.37;88.21;101625.25;5030457;28;20044;-73
2023/05/05 06:34:33;;;;;;;24.73;15.07;;;;;;;14.41;87.89;101628.63;5028362;28;20041;-73
2023/05/05 06:36:58;;;;;;;18.48;12.80;;;;;;;14.44;87.42;101627.59;5018715;28;20038;-74
2023/05/05 06:39:23;;;;;;;30.23;15.05;;;;;;;14.48;87.74;101629.16;5017552;28;20228;-73
2023/05/05 06:41:49;;;;;;;20.05;13.63;;;;;;;14.51;88.80;101627.25;5025528;28;20365;-73
2023/05/05 06:44:15;;;;;;;20.95;12.90;;;;;;;14.56;88.52;101629.69;5018037;28;20057;-73
2023/05/05 06:46:42;;;;;;;17.38;11.60;;;;;;;14.59;87.52;101635.72;5020825;28;20252;-74
2023/05/05 06:49:07;;;;;;;18.38;12.13;;;;;;;14.63;86.58;101644.34;5018344;28;20034;-73
2023/05/05 06:51:33;;;;;;;20.60;12.55;;;;;;;14.67;86.21;101642.44;5031655;28;20351;-73
2023/05/05 06:53:58;;;;;;;17.02;11.50;;;;;;;14.69;85.61;101640.59;5018980;28;20275;-73
2023/05/05 06:56:24;;;;;;;19.98;10.95;;;;;;;14.72;85.75;101643.09;5015688;28;20154;-73
2023/05/05 06:58:49;;;;;;;12.15;9.88;;;;;;;14.73;86.07;101640.34;5017196;28;20045;-73
2023/05/05 07:01:14;;;;;;;15.98;10.00;;;;;;;14.75;85.38;101633.25;5016783;28;20041;-73
2023/05/05 07:03:40;;;;;;;18.05;9.32;;;;;;;14.80;85.17;101638.31;5016568;28;20087;-73
2023/05/05 07:06:05;;;;;;;10.48;7.13;;;;;;;14.85;85.20;101632.84;5015818;28;20368;-73
2023/05/05 07:08:31;;;;;;;7.68;6.82;;;;;;;14.90;84.57;101628.22;5016369;28;20044;-73
2023/05/05 07:10:56;;;;;;;9.38;7.50;;;;;;;14.95;84.71;101626.19;5015452;28;20132;-73
2023/05/05 07:13:22;;;;;;;8.07;7.28;;;;;;;15.00;84.56;101621.56;5016812;28;20061;-73
2023/05/05 07:15:48;;;;;;;12.65;7.10;;;;;;;15.03;84.16;101624.06;5016538;28;20038;-73
2023/05/05 07:18:15;;;;;;;9.20;6.45;;;;;;;15.05;83.36;101621.34;5015133;28;20253;-74
2023/05/05 07:20:40;;;;;;;6.38;5.72;;;;;;;15.07;83.36;101627.41;5015464;28;20049;-73
2023/05/05 07:23:06;;;;;;;6.85;5.32;;;;;;;15.07;82.83;101630.91;5015532;28;20349;-73
2023/05/05 07:25:32;;;;;;;7.35;6.10;;;;;;;15.09;83.14;101641.38;5015347;28;20333;-73
2023/05/05 07:27:58;;;;;;;8.68;6.45;;;;;;;15.10;82.86;101643.09;5015414;28;20061;-73
2023/05/05 07:30:24;;;;;;;8.07;6.20;;;;;;;15.12;82.90;101636.81;5014229;28;20092;-72
2023/05/05 07:32:50;;;;;;;6.15;5.40;;;;;;;15.12;82.53;101631.53;5015322;28;20117;-73
2023/05/05 07:35:16;;;;;;;8.90;5.85;;;;;;;15.13;82.43;101641.19;5016670;28;20041;-73
2023/05/05 07:37:42;;;;;;;8.85;6.03;;;;;;;15.15;82.84;101639.31;5016343;28;20045;-73
2023/05/05 07:40:08;;;;;;;6.05;5.22;;;;;;;15.17;82.39;101649.78;5017074;28;20041;-73
2023/05/05 07:42:33;;;;;;;6.40;5.40;;;;;;;15.18;82.57;101648.88;5016426;28;20084;-73
2023/05/05 07:44:59;;;;;;;12.10;6.70;;;;;;;15.21;82.89;101653.13;5016707;28;20038;-73
2023/05/05 07:47:25;;;;;;;8.05;6.35;;;;;;;15.22;83.36;101657.50;5024123;28;20045;-73
2023/05/05 07:49:50;;;;;;;8.27;6.18;;;;;;;15.22;83.16;101660.97;5015429;28;20252;-72
2023/05/05 07:52:15;;;;;;;9.13;6.15;;;;;;;15.22;82.85;101660.13;5016453;28;20060;-73
2023/05/05 07:54:41;;;;;;;12.27;6.53;;;;;;;15.21;82.47;101661.03;5010318;28;20638;-73
2023/05/05 07:57:07;;;;;;;11.73;6.07;;;;;;;15.23;82.56;101656.56;5016717;28;20050;-73
2023/05/05 07:59:33;;;;;;;6.85;6.13;;;;;;;15.23;82.31;101652.16;5015930;28;20045;-73
2023/05/05 08:01:58;;;;;;;7.72;5.85;;;;;;;15.25;82.76;101663.47;5015448;28;20100;-73
2023/05/05 08:04:24;;;;;;;10.35;5.15;;;;;;;15.27;82.35;101666.06;5015104;28;20045;-73
2023/05/05 08:06:49;;;;;;;9.02;5.88;;;;;;;15.29;82.71;101664.19;5016470;28;20124;-73
2023/05/05 08:09:15;;;;;;;6.70;5.50;;;;;;;15.31;82.26;101657.91;5017275;28;20360;-73
2023/05/05 08:11:40;;;;;;;9.57;5.20;;;;;;;15.32;82.03;101659.63;5016896;28;20048;-73
2023/05/05 08:14:06;;;;;;;7.60;4.90;;;;;;;15.35;81.96;101669.16;5015309;28;20033;-74
2023/05/05 08:16:32;;;;;;;5.65;4.15;;;;;;;15.39;81.86;101676.03;5019162;28;20037;-73
2023/05/05 08:18:57;;;;;;;5.40;3.58;;;;;;;15.40;81.11;101676.88;5021068;28;20045;-73
2023/05/05 08:21:22;;;;;;;5.53;3.70;;;;;;;15.44;80.77;101681.91;5021116;28;20040;-73
2023/05/05 08:23:48;;;;;;;7.75;3.70;;;;;;;15.46;80.79;101677.44;5017406;28;20042;-73
2023/05/05 08:26:13;;;;;;;4.15;3.17;;;;;;;15.50;80.64;101681.66;5019809;28;20152;-73
2023/05/05 08:28:39;;;;;;;4.68;3.20;;;;;;;15.53;80.80;101678.00;5020206;28;20125;-73
2023/05/05 08:31:05;;;;;;;7.05;4.15;;;;;;;15.55;80.58;101676.13;5018946;28;20038;-73
2023/05/05 08:33:31;;;;;;;5.43;3.33;;;;;;;15.57;80.62;101678.69;5019550;28;20050;-73
2023/05/05 08:35:56;;;;;;;4.50;3.15;;;;;;;15.57;79.67;101681.34;5019787;28;20038;-73
2023/05/05 08:38:22;;;;;;;5.13;3.17;;;;;;;15.58;79.68;101683.06;5019567;28;20066;-73
2023/05/05 08:40:49;;;;;;;3.60;3.15;;;;;;;15.57;79.76;101678.69;5019722;28;20052;-73
2023/05/05 08:43:19;;;;;;;8.00;3.55;;;;;;;15.57;80.14;101687.47;5019381;28;20091;-73
2023/05/05 08:45:45;;;;;;;3.97;3.20;;;;;;;15.59;79.94;101679.47;5017408;28;20109;-73
2023/05/05 08:48:11;;;;;;;4.15;2.95;;;;;;;15.61;79.34;101675.84;5018547;28;20273;-73
2023/05/05 08:50:38;;;;;;;10.00;3.90;;;;;;;15.62;80.14;101672.25;5004913;28;20383;-73
2023/05/05 08:53:20;;;;;;;5.43;3.45;;;;;;;15.64;80.18;101683.59;5019733;28;21019;-73
2023/05/05 08:55:55;;;;;;;3.90;2.05;;;;;;;15.66;79.13;101692.34;5009104;28;20042;-73
2023/05/05 08:58:23;;;;;;;3.65;1.63;;;;;;;15.67;78.74;101678.19;5020044;28;20349;-73
2023/05/05 09:00:50;;;;;;;1.40;1.13;;;;;;;15.69;77.83;101686.03;5018728;28;20302;-73
2023/05/05 09:03:16;;;;;;;2.97;1.45;;;;;;;15.70;77.66;101693.03;5018825;28;20217;-73
2023/05/05 09:05:42;;;;;;;2.63;1.35;;;;;;;15.70;78.05;101685.97;5019459;28;20057;-73
2023/05/05 09:08:09;;;;;;;2.88;1.40;;;;;;;15.72;78.29;101702.59;5020095;28;20073;-73
2023/05/05 09:10:35;;;;;;;2.72;0.95;;;;;;;15.72;78.13;101697.31;5019618;28;20056;-73
2023/05/05 09:13:05;;;;;;;3.22;1.45;;;;;;;15.71;78.44;101687.66;5015274;28;20316;-73
2023/05/05 09:15:31;;;;;;;2.38;1.60;;;;;;;15.71;78.37;101700.00;5019164;28;20049;-73
2023/05/05 09:17:57;;;;;;;6.05;1.50;;;;;;;15.71;78.31;101687.66;5019366;28;20045;-73
2023/05/05 09:20:23;;;;;;;4.18;1.20;;;;;;;15.71;78.44;101694.72;5018396;28;20038;-73
2023/05/05 09:22:49;;;;;;;3.97;1.15;;;;;;;15.72;78.00;101686.75;5021978;28;20053;-73
2023/05/05 09:25:16;;;;;;;1.70;1.08;;;;;;;15.74;77.84;101699.91;5017637;28;20276;-73
2023/05/05 09:27:47;;;;;;;2.47;1.20;;;;;;;15.72;78.18;101702.59;5019961;28;20060;-73
2023/05/05 09:30:31;;;;;;;1.42;1.00;;;;;;;15.72;78.24;101699.94;5014411;28;20036;-73
2023/05/05 09:32:56;;;;;;;2.03;0.80;;;;;;;15.70;78.19;101703.59;5019393;28;20030;-73
2023/05/05 09:35:22;;;;;;;6.78;1.30;;;;;;;15.70;79.72;101720.28;5018277;28;20049;-73
2023/05/05 09:37:47;;;;;;;6.32;0.90;;;;;;;15.67;80.59;101711.66;5022233;28;20086;-73
2023/05/05 09:40:15;;;;;;;1.35;0.90;;;;;;;15.62;80.36;101711.88;5024702;28;20049;-73
2023/05/05 09:42:41;;;;;;;3.23;1.10;;;;;;;15.61;80.67;101715.47;5018909;28;20104;-73
2023/05/05 09:45:27;;;;;;;5.07;1.40;;;;;;;15.56;81.12;101720.09;5017866;28;20127;-73
2023/05/05 09:47:52;;;;;;;4.00;1.40;;;;;;;15.54;81.50;101716.69;5018841;28;20268;-73
2023/05/05 09:50:18;;;;;;;3.13;1.13;;;;;;;15.53;81.38;101717.59;5019073;28;20113;-73
2023/05/05 09:52:53;;;;;;;2.83;1.02;;;;;;;15.50;81.65;101715.97;5018682;28;20244;-73
2023/05/05 09:55:19;;;;;;;1.85;1.20;;;;;;;15.48;81.84;101707.25;5018605;28;20041;-73
2023/05/05 09:57:46;;;;;;;6.00;1.80;;;;;;;15.46;82.13;101698.56;5018839;28;20037;-73
2023/05/05 10:00:12;;;;;;;2.00;1.40;;;;;;;15.46;82.01;101697.69;5018824;28;20038;-73
2023/05/05 10:02:38;;;;;;;1.70;1.60;;;;;;;15.45;82.10;101699.47;5016608;28;20136;-73
2023/05/05 10:05:11;;;;;;;2.65;1.67;;;;;;;15.47;82.27;101689.69;5018246;28;20060;-73
2023/05/05 10:07:38;;;;;;;2.03;1.40;;;;;;;15.46;82.06;101693.28;5015134;28;20068;-73
2023/05/05 10:10:06;;;;;;;3.92;2.30;;;;;;;15.46;83.09;101697.69;5018341;28;20025;-73
2023/05/05 10:12:37;;;;;;;4.28;1.85;;;;;;;15.46;83.52;101695.06;5018281;28;20351;-73
2023/05/05 10:15:05;;;;;;;5.15;2.60;;;;;;;15.45;83.92;101690.72;5018054;28;20049;-73
2023/05/05 10:17:32;;;;;;;4.68;2.53;;;;;;;15.45;84.77;101688.94;5017721;28;20415;-73
2023/05/05 10:20:00;;;;;;;2.33;2.10;;;;;;;15.45;84.78;101696.00;5018286;28;20061;-73
2023/05/05 10:22:28;;;;;;;3.70;2.40;;;;;;;15.45;85.01;101688.94;5018093;28;20034;-73
2023/05/05 10:25:00;;;;;;;4.68;2.50;;;;;;;15.46;85.59;101697.69;5018073;28;20280;-73
2023/05/05 10:27:27;;;;;;;2.90;2.22;;;;;;;15.46;86.21;101692.41;5018207;28;20221;-73
2023/05/05 10:30:04;;;;;;;4.25;2.47;;;;;;;15.48;86.98;101703.75;5017579;28;20087;-73
2023/05/05 10:33:04;;;;;;;3.20;1.65;;;;;;;15.46;87.67;101705.59;5017615;28;20057;-73
2023/05/05 10:35:31;;;;;;;3.28;1.98;;;;;;;15.44;87.56;101716.22;5017055;28;20030;-73
2023/05/05 10:37:57;;;;;;;12.13;3.95;;;;;;;15.44;88.14;101697.75;5018190;28;20371;-73
2023/05/05 10:40:23;;;;;;;5.18;3.13;;;;;;;15.41;88.58;101692.66;5020346;28;20097;-73
2023/05/05 10:42:49;;;;;;;3.35;2.53;;;;;;;15.40;89.16;101693.56;5018389;28;20340;-73
2023/05/05 10:45:15;;;;;;;4.25;2.80;;;;;;;15.39;90.09;101691.00;5017388;28;20048;-73
2023/05/05 10:47:43;;;;;;;6.63;3.53;;;;;;;15.38;90.53;101697.22;5016045;28;20057;-73
2023/05/05 10:50:23;;;;;;;3.10;2.80;;;;;;;15.37;91.04;101696.34;5034840;28;20129;-73
2023/05/05 10:53:07;;;;;;;4.82;3.20;;;;;;;15.36;91.45;101702.56;5015247;28;20068;-73
2023/05/05 10:55:47;;;;;;;6.03;3.38;;;;;;;15.34;91.66;101694.72;5016015;28;20037;-73
2023/05/05 10:58:33;;;;;;;5.65;3.28;;;;;;;15.34;92.14;101689.44;5018038;28;20057;-73
2023/05/05 11:00:58;;;;;;;6.55;3.50;;;;;;;15.33;92.28;101693.03;5016803;28;20038;-73
2023/05/05 11:03:24;;;;;;;3.60;3.30;;;;;;;15.32;92.64;101696.56;5017394;28;20127;-73
2023/05/05 11:06:07;;;;;;;5.20;3.80;;;;;;;15.32;92.77;101690.44;5027341;28;20061;-73
2023/05/05 11:08:41;;;;;;;5.07;3.83;;;;;;;15.32;93.20;101696.56;5021603;28;20037;-73
2023/05/05 11:11:09;;;;;;;5.10;3.35;;;;;;;15.33;93.35;101689.50;5018003;28;20102;-73
2023/05/05 11:13:35;;;;;;;4.50;3.50;;;;;;;15.32;93.44;101672.81;5017362;28;20049;-73
2023/05/05 11:16:04;;;;;;;5.07;3.63;;;;;;;15.32;93.52;101664.06;5017509;28;20312;-73
2023/05/05 11:18:36;;;;;;;5.88;4.22;;;;;;;15.31;93.74;101638.59;5017094;28;20048;-73
2023/05/05 11:21:15;;;;;;;4.00;3.63;;;;;;;15.29;94.01;101651.84;5017636;28;20187;-73
2023/05/05 11:23:50;;;;;;;5.70;3.38;;;;;;;15.29;94.21;101682.66;5013888;28;20036;-73
2023/05/05 11:26:37;;;;;;;5.55;3.78;;;;;;;15.28;94.66;101691.50;5017890;28;20034;-73